• Join FlightAware (Why Join?)
  • Login
  • US Flag 
02:50AM EDT


 

Airport Tracker/Info


-or-


 

Live Flight TrackerFlight Track Log ✈ UAL5868 ✈ 20-Aug-2013 ✈ KCLE - KBNA

Flight Track Log - Related Links

Times and Time Zones

All times are in EDT time to prevent confusion due to time zone crossing. See the UAL5868 flight status page for this flight to view local times or setup timezone preferences in your user account.

Time Position Orientation Groundspeed Altitude Reporting Facility
EDT Latitude Longitude Course Direction KTS MPH feet Rate Location/Type
04:54PM 41.4258 -81.8292 242° Southwest 180 207 1,900  Level Cleveland Center
04:55PM 41.4531 -81.8158 20° North 179 206 2,900 1,560 Climbing Cleveland Center
04:56PM 41.5175 -81.8172 359° North 238 274 4,800 1,380 Climbing Cleveland Center
04:57PM 41.2478 -82.3408 248° West  Level FlightAware Approximate
04:57PM 41.5606 -81.8847 310° West 275 316 6,100  Level Cleveland Center
04:58PM 41.2106 -82.4647 248° West  Level FlightAware Approximate
04:58PM 41.5428 -81.9953 258° West 263 303 8,100  Level Cleveland Center
04:59PM 41.1638 -82.5821 242° Southwest  Level FlightAware Approximate
04:59PM 41.4936 -82.0772 231° Southwest 277 319 10,100  Level Cleveland Center
05:00PM 41.4428 -82.1481 226° Southwest 303 349 11,300 1,080 Climbing Cleveland Center
05:01PM 41.3850 -82.2381 229° Southwest 315 362 12,300 900 Climbing Cleveland Center
05:02PM 41.3211 -82.3333 228° Southwest 335 386 13,200 900 Climbing Cleveland Center
05:03PM 41.2572 -82.4311 229° Southwest 345 397 14,200 1,200 Climbing Cleveland Center
05:04PM 41.1928 -82.5314 230° Southwest 357 411 15,600 1,500 Climbing Cleveland Center
05:05PM 41.1472 -82.6431 242° Southwest 357 411 17,200 1,200 Climbing Cleveland Center
05:06PM 41.1033 -82.7517 242° Southwest 349 402 18,000 840 Climbing Cleveland Center
05:07PM 41.0864 -82.8781 260° West 343 395 18,900 900 Climbing Cleveland Center
05:08PM 41.0647 -83.0122 258° West 364 419 19,900 900 Climbing Cleveland Center
05:09PM 41.0453 -83.1436 259° West 371 427 20,800 900 Climbing Cleveland Center
05:10PM 41.0275 -83.2806 260° West 371 427 21,800 900 Climbing Cleveland Center
05:11PM 41.0075 -83.4147 259° West 371 427 22,700 900 Climbing Cleveland Center
05:12PM 40.9875 -83.5542 259° West 380 437 23,700 840 Climbing Cleveland Center
05:13PM 40.9647 -83.6939 258° West 384 442 24,600 900 Climbing Indianapolis Center
05:14PM 40.9158 -83.8453 247° West 389 448 25,700 960 Climbing Indianapolis Center
05:15PM 40.8642 -83.9686 241° Southwest 384 442 26,600 900 Climbing Indianapolis Center
05:16PM 40.8100 -84.0936 240° Southwest 389 448 27,600 900 Climbing Indianapolis Center
05:17PM 40.7567 -84.2172 240° Southwest 387 445 28,500 900 Climbing Indianapolis Center
05:18PM 40.7025 -84.3403 240° Southwest 387 445 29,500 900 Climbing Indianapolis Center
05:19PM 40.6494 -84.4631 240° Southwest 386 444 30,400 840 Climbing Indianapolis Center
05:20PM 40.5867 -84.6081 240° Southwest 390 449 31,300 720 Climbing Indianapolis Center
05:21PM 40.5311 -84.7331 240° Southwest 394 453 32,000 720 Climbing Indianapolis Center
05:22PM 40.4764 -84.8597 240° Southwest 397 457 32,800 720 Climbing Indianapolis Center
05:23PM 40.4219 -84.9789 239° Southwest 404 465 33,500 540 Climbing Indianapolis Center
05:24PM 40.3658 -85.1058 240° Southwest 403 464 34,000 240 Climbing Indianapolis Center
05:25PM 40.2969 -85.2600 240° Southwest 412 474 34,000  Level Indianapolis Center
05:26PM 40.2406 -85.3856 240° Southwest 404 465 34,000  Level Indianapolis Center
05:27PM 40.1869 -85.5100 241° Southwest 396 456 34,000  Level Indianapolis Center
05:28PM 40.1325 -85.6361 241° Southwest 400 460 34,000  Level Indianapolis Center
05:29PM 40.0772 -85.7644 241° Southwest 407 468 34,000  Level Indianapolis Center
05:31PM 40.0119 -85.9161 241° Southwest 401 461 34,000 -480 Level Indianapolis Center
05:32PM 39.9572 -86.0442 241° Southwest 406 467 33,100 -1,020 Descending Indianapolis Center
05:33PM 39.9011 -86.1728 240° Southwest 411 473 32,000 -540 Descending Indianapolis Center
05:34PM 39.8450 -86.3022 241° Southwest 418 481 32,000  Level Indianapolis Center
05:35PM 39.7489 -86.4181 223° Southwest 415 478 32,000  Level Indianapolis Center
05:36PM 39.6522 -86.4917 210° Southwest 411 473 32,000  Level Indianapolis Center
05:37PM 39.5539 -86.5656 210° Southwest 412 474 32,000  Level Indianapolis Center
05:38PM 39.4553 -86.6392 210° Southwest 412 474 32,000  Level Indianapolis Center
05:39PM 39.3369 -86.7294 211° Southwest 413 475 32,000  Level Indianapolis Center
05:40PM 39.2428 -86.8150 215° Southwest 414 476 32,000  Level Indianapolis Center
05:41PM 39.1522 -86.9075 218° Southwest 417 480 32,000  Level Indianapolis Center
05:42PM 39.0650 -86.9908 217° Southwest 415 478 32,000  Level Indianapolis Center
05:43PM 38.9550 -87.0992 217° Southwest 415 478 32,000  Level Indianapolis Center
05:44PM 38.8622 -87.1864 216° Southwest 414 476 32,000  Level Indianapolis Center
05:45PM 38.7697 -87.2742 217° Southwest 415 478 32,000  Level Indianapolis Center
05:46PM 38.6764 -87.3600 216° Southwest 414 476 32,000  Level Indianapolis Center
05:47PM 38.5789 -87.4314 210° Southwest 406 467 32,000  Level Indianapolis Center
05:48PM 38.4642 -87.4225 177° South 413 475 32,000  Level Indianapolis Center
05:49PM 38.3258 -87.4036 174° South 419 482 32,000  Level Indianapolis Center
05:50PM 38.2103 -87.3850 173° South 422 486 32,000  Level Indianapolis Center
05:51PM 38.0947 -87.3683 174° South 421 484 32,000 -480 Level Indianapolis Center
05:52PM 37.9803 -87.3447 171° South 419 482 31,100 -1,320 Descending Indianapolis Center
05:53PM 37.8664 -87.3019 163° South 426 490 29,300 -1,920 Descending Indianapolis Center
05:54PM 37.7364 -87.2481 162° South 439 505 27,200 -2,220 Descending Indianapolis Center
05:55PM 37.6097 -87.1992 163° South 441 507 24,800 -2,100 Descending Indianapolis Center
05:56PM 37.4992 -87.1589 164° South 440 506 23,000 -1,260 Descending Indianapolis Center
05:57PM 37.3892 -87.1214 165° South 410 472 22,200 -1,020 Descending Indianapolis Center
05:58PM 37.2775 -87.0847 165° South 410 472 21,000 -1,020 Descending Indianapolis Center
05:59PM 37.1525 -87.0489 167° South 390 449 20,100 -1,740 Descending Indianapolis Center
06:00PM 37.0414 -87.0483 180° South 394 453 17,500 -2,640 Descending Indianapolis Center
06:02PM 36.9294 -87.0506 181° South 386 444 14,700 -2,820 Descending Memphis Center
06:03PM 36.8294 -87.0494 179° South 375 432 11,900 -1,860 Descending Memphis Center
06:04PM 36.7356 -87.0456 178° South 356 410 11,000 -480 Descending Memphis Center
06:05PM 36.6444 -86.9950 156° South 355 409 11,000  Level Memphis Center
06:06PM 36.5556 -86.9394 153° Southeast 355 409 11,000 -180 Level Memphis Center
06:07PM 36.4686 -86.8861 154° Southeast 351 404 10,700 -660 Descending Memphis Center
06:08PM 36.4028 -86.8453 153° Southeast 320 368 9,700 -1,260 Descending Memphis Center
06:09PM 36.3328 -86.8019 153° Southeast 288 331 8,200 -1,560 Descending Memphis Center
06:10PM 36.2586 -86.7589 155° Southeast 277 319 6,700 -1,500 Descending Memphis Center
06:11PM 36.1933 -86.7436 169° South 258 297 5,300 -1,020 Descending Memphis Center
06:12PM 36.1275 -86.7697 198° South 240 276 4,700 -900 Descending Memphis Center
06:13PM 36.0697 -86.7928 198° South 232 267 3,500 -900 Descending Memphis Center
06:14PM 36.0269 -86.7561 145° Southeast 195 224 3,000 -780 Descending Memphis Center
06:15PM 36.0550 -86.7114 52° Northeast 148 170 2,000 -960 Descending Memphis Center
06:16PM 36.0919 -86.6967 18° North 130 150 1,100 -720 Descending Memphis Center
06:17PM 36.1289 -86.6797 20° North 135 155 600 -540 Descending Memphis Center